createdAt,value
2023-05-19T00:00:59.215Z,83.45
2023-05-19T00:03:25.937Z,83.40
2023-05-19T00:05:52.407Z,83.48
2023-05-19T00:08:18.916Z,83.47
2023-05-19T00:10:45.590Z,83.47
2023-05-19T00:13:12.006Z,83.49
2023-05-19T00:15:38.623Z,83.50
2023-05-19T00:18:05.055Z,83.49
2023-05-19T00:20:31.954Z,83.45
2023-05-19T00:22:58.525Z,83.52
2023-05-19T00:25:24.916Z,83.51
2023-05-19T00:27:51.331Z,83.44
2023-05-19T00:30:17.940Z,83.52
2023-05-19T00:32:44.428Z,83.47
2023-05-19T00:35:10.893Z,83.51
2023-05-19T00:37:37.283Z,83.50
2023-05-19T00:40:03.685Z,83.52
2023-05-19T00:42:30.089Z,83.54
2023-05-19T00:44:56.475Z,83.53
2023-05-19T00:47:22.889Z,83.54
2023-05-19T00:49:49.303Z,83.50
2023-05-19T00:52:15.964Z,83.55
2023-05-19T00:54:42.365Z,83.55
2023-05-19T00:57:08.976Z,83.51
2023-05-19T00:59:35.404Z,83.53
2023-05-19T01:02:02.047Z,83.51
2023-05-19T01:04:28.456Z,83.56
2023-05-19T01:06:55.150Z,83.49
2023-05-19T01:09:21.808Z,83.55
2023-05-19T01:11:48.423Z,83.52
2023-05-19T01:14:14.814Z,83.55
2023-05-19T01:16:41.257Z,83.48
2023-05-19T01:19:07.714Z,83.47
2023-05-19T01:21:34.119Z,83.49
2023-05-19T01:24:00.732Z,83.44
2023-05-19T01:26:27.158Z,83.46
2023-05-19T01:28:53.778Z,83.50
2023-05-19T01:31:20.231Z,83.51
2023-05-19T01:33:46.651Z,83.51
2023-05-19T01:36:13.057Z,83.48
2023-05-19T01:38:39.495Z,83.46
2023-05-19T01:41:05.935Z,83.49
2023-05-19T01:43:32.349Z,83.39
2023-05-19T01:45:59.024Z,83.49
2023-05-19T01:48:25.760Z,83.45
2023-05-19T01:50:52.170Z,83.37
2023-05-19T01:53:18.888Z,83.36
2023-05-19T01:55:45.281Z,83.37
2023-05-19T01:58:11.693Z,83.39
2023-05-19T02:00:38.126Z,83.41
2023-05-19T02:03:04.888Z,83.39
2023-05-19T02:05:31.350Z,83.32
2023-05-19T02:07:57.960Z,83.40
2023-05-19T02:10:24.398Z,83.41
2023-05-19T02:12:50.819Z,83.38
2023-05-19T02:15:17.220Z,83.33
2023-05-19T02:17:43.683Z,83.33
2023-05-19T02:20:10.135Z,83.30
2023-05-19T02:22:36.575Z,83.30
2023-05-19T02:25:02.989Z,83.25
2023-05-19T02:27:29.410Z,83.25
2023-05-19T02:29:55.853Z,83.18
2023-05-19T02:32:22.261Z,83.16
2023-05-19T02:34:48.648Z,83.26
2023-05-19T02:37:15.047Z,83.16
2023-05-19T02:39:41.479Z,83.14
2023-05-19T02:42:07.932Z,83.14
2023-05-19T02:44:34.382Z,83.16
2023-05-19T02:47:00.805Z,83.18
2023-05-19T02:49:27.244Z,83.20
2023-05-19T02:51:53.679Z,83.26
2023-05-19T02:54:20.087Z,83.12
2023-05-19T02:56:46.725Z,83.29
2023-05-19T02:59:13.156Z,83.24
2023-05-19T03:01:39.635Z,83.14
2023-05-19T03:04:06.088Z,83.21
2023-05-19T03:06:32.523Z,83.16
2023-05-19T03:08:59.137Z,83.02
2023-05-19T03:11:25.561Z,83.28
2023-05-19T03:13:51.973Z,83.16
2023-05-19T03:16:18.394Z,83.32
2023-05-19T03:18:45.052Z,83.13
2023-05-19T03:21:11.445Z,83.39
2023-05-19T03:23:38.164Z,83.79
2023-05-19T03:26:04.611Z,83.62
2023-05-19T03:28:31.025Z,83.68
2023-05-19T03:30:57.434Z,83.93
2023-05-19T03:33:23.974Z,83.99
2023-05-19T03:35:50.660Z,84.03
2023-05-19T03:38:17.056Z,84.25
2023-05-19T03:40:43.725Z,84.23
2023-05-19T03:43:10.367Z,84.79
2023-05-19T03:45:39.500Z,85.23
2023-05-19T03:48:05.995Z,85.00
2023-05-19T03:50:32.882Z,84.98
2023-05-19T03:52:59.472Z,84.73
2023-05-19T03:55:25.904Z,85.11
2023-05-19T03:57:52.353Z,85.43
2023-05-19T04:00:18.796Z,85.61
2023-05-19T04:02:45.356Z,85.49
2023-05-19T04:05:11.820Z,85.45
2023-05-19T04:07:38.240Z,85.38
2023-05-19T04:10:04.665Z,85.42
2023-05-19T04:12:31.097Z,85.17
2023-05-19T04:14:57.488Z,85.28
2023-05-19T04:17:23.938Z,85.20
2023-05-19T04:19:50.368Z,85.48
2023-05-19T04:22:16.798Z,85.73
2023-05-19T04:24:43.218Z,85.83
2023-05-19T04:27:09.638Z,85.51
2023-05-19T04:29:36.051Z,85.37
2023-05-19T04:32:02.468Z,85.42
2023-05-19T04:34:28.877Z,85.55
2023-05-19T04:36:55.256Z,85.52
2023-05-19T04:39:21.640Z,85.53
2023-05-19T04:41:48.055Z,85.74
2023-05-19T04:44:14.486Z,85.69
2023-05-19T04:46:40.920Z,85.62
2023-05-19T04:49:07.398Z,85.59
2023-05-19T04:51:33.814Z,85.65
2023-05-19T04:54:00.232Z,85.56
2023-05-19T04:56:26.637Z,85.45
2023-05-19T04:58:53.077Z,85.75
2023-05-19T05:01:19.551Z,85.72
2023-05-19T05:03:46.109Z,85.61
2023-05-19T05:06:12.538Z,85.70
2023-05-19T05:08:39.159Z,85.81
2023-05-19T05:11:05.576Z,85.76
2023-05-19T05:13:32.190Z,85.72
2023-05-19T05:15:58.618Z,85.56
2023-05-19T05:18:25.257Z,85.44
2023-05-19T05:20:51.699Z,85.75
2023-05-19T05:23:18.318Z,85.58
2023-05-19T05:25:44.716Z,85.41
2023-05-19T05:28:12.044Z,85.41
2023-05-19T05:30:38.983Z,85.43
2023-05-19T05:33:05.550Z,85.54
2023-05-19T05:35:32.209Z,85.44
2023-05-19T05:37:58.739Z,85.28
2023-05-19T05:40:25.160Z,85.56
2023-05-19T05:42:51.960Z,85.35
2023-05-19T05:45:18.570Z,85.37
2023-05-19T05:47:46.012Z,85.24
2023-05-19T05:50:12.463Z,84.65
2023-05-19T05:52:38.885Z,84.97
2023-05-19T05:55:05.570Z,85.19
2023-05-19T05:57:31.983Z,85.24
2023-05-19T05:59:58.441Z,85.03
2023-05-19T06:02:24.991Z,84.81
2023-05-19T06:04:51.485Z,84.36
2023-05-19T06:07:17.902Z,84.44
2023-05-19T06:09:44.296Z,84.36
2023-05-19T06:12:10.703Z,83.34
2023-05-19T06:14:37.345Z,83.62
2023-05-19T06:17:03.786Z,83.56
2023-05-19T06:19:30.290Z,83.70
2023-05-19T06:21:56.966Z,83.43
2023-05-19T06:24:23.367Z,83.70
2023-05-19T06:26:50.006Z,83.19
2023-05-19T06:29:16.389Z,83.76
2023-05-19T06:31:43.126Z,83.12
2023-05-19T06:34:09.571Z,83.50
2023-05-19T06:36:35.996Z,83.67
2023-05-19T06:39:02.906Z,83.05
2023-05-19T06:41:29.440Z,83.19
2023-05-19T06:43:55.852Z,83.23
2023-05-19T06:46:22.314Z,83.21
2023-05-19T06:48:48.768Z,82.95
2023-05-19T06:51:15.427Z,83.15
2023-05-19T06:53:44.883Z,82.98
2023-05-19T06:56:11.274Z,83.06
2023-05-19T06:58:38.183Z,82.95
2023-05-19T07:01:04.580Z,82.95
2023-05-19T07:03:32.094Z,82.81
2023-05-19T07:05:58.607Z,82.99
2023-05-19T07:08:25.002Z,82.84
2023-05-19T07:10:51.629Z,82.89
2023-05-19T07:13:18.031Z,82.84
2023-05-19T07:15:45.221Z,82.81
2023-05-19T07:18:11.661Z,82.73
2023-05-19T07:20:38.105Z,82.80
2023-05-19T07:23:04.583Z,82.74
2023-05-19T07:25:31.266Z,82.76
2023-05-19T07:27:57.697Z,82.77
2023-05-19T07:30:24.162Z,82.87
2023-05-19T07:32:51.079Z,82.87
2023-05-19T07:35:17.948Z,82.97
2023-05-19T07:37:44.343Z,82.98
2023-05-19T07:40:11.988Z,82.98
2023-05-19T07:42:38.436Z,82.94
2023-05-19T07:45:04.869Z,83.05
2023-05-19T07:47:31.404Z,83.02
2023-05-19T07:49:58.117Z,82.94
2023-05-19T07:52:24.777Z,82.98
2023-05-19T07:54:51.207Z,83.01
2023-05-19T07:57:17.647Z,82.97
2023-05-19T07:59:44.280Z,83.00
2023-05-19T08:02:10.684Z,83.07
2023-05-19T08:04:37.192Z,83.13
2023-05-19T08:07:06.500Z,83.20
2023-05-19T08:09:32.905Z,83.21
2023-05-19T08:11:59.540Z,83.23
2023-05-19T08:14:25.960Z,83.12
2023-05-19T08:16:52.378Z,83.05
2023-05-19T08:19:18.878Z,83.00
2023-05-19T08:21:45.315Z,83.08
2023-05-19T08:24:11.973Z,83.19
2023-05-19T08:26:38.949Z,83.24
2023-05-19T08:29:05.369Z,83.24
2023-05-19T08:31:32.128Z,83.32
2023-05-19T08:33:58.655Z,83.24
2023-05-19T08:36:25.306Z,83.31
2023-05-19T08:38:51.711Z,83.29
2023-05-19T08:41:18.115Z,83.31
2023-05-19T08:43:44.542Z,83.32
2023-05-19T08:46:11.202Z,83.40
2023-05-19T08:48:37.873Z,83.47
2023-05-19T08:51:04.279Z,83.47
2023-05-19T08:53:33.932Z,83.43
2023-05-19T08:56:01.109Z,83.45
2023-05-19T08:58:28.750Z,83.49
2023-05-19T09:00:55.637Z,83.51
2023-05-19T09:03:24.201Z,83.33
2023-05-19T09:05:51.393Z,83.11
2023-05-19T09:08:18.011Z,83.12
2023-05-19T09:10:44.452Z,83.06
2023-05-19T09:13:10.857Z,83.07
2023-05-19T09:15:37.895Z,83.10
2023-05-19T09:18:04.329Z,83.08
2023-05-19T09:20:30.778Z,83.17
2023-05-19T09:22:57.193Z,83.22
2023-05-19T09:25:23.621Z,83.16
2023-05-19T09:27:50.038Z,83.21
2023-05-19T09:30:16.478Z,83.26
2023-05-19T09:32:43.585Z,83.29
2023-05-19T09:35:10.136Z,83.29
2023-05-19T09:37:36.539Z,83.27
2023-05-19T09:40:03.064Z,83.38
2023-05-19T09:42:29.484Z,83.43
2023-05-19T09:44:55.899Z,83.31
2023-05-19T09:47:22.339Z,83.23
2023-05-19T09:49:48.766Z,83.20
2023-05-19T09:52:15.381Z,83.28
2023-05-19T09:54:41.811Z,83.33
2023-05-19T09:57:08.814Z,83.38
2023-05-19T09:59:35.370Z,83.44
2023-05-19T10:02:02.068Z,83.45
2023-05-19T10:04:28.565Z,83.42
2023-05-19T10:06:55.276Z,83.53
2023-05-19T10:09:21.704Z,83.54
2023-05-19T10:11:48.382Z,83.55
2023-05-19T10:14:14.777Z,83.49
2023-05-19T10:16:41.485Z,83.52
2023-05-19T10:19:07.979Z,83.63
2023-05-19T10:21:34.647Z,83.69
2023-05-19T10:24:01.042Z,83.60
2023-05-19T10:26:27.729Z,83.47
2023-05-19T10:28:54.279Z,83.45
2023-05-19T10:31:20.954Z,83.42
2023-05-19T10:33:47.383Z,83.39
2023-05-19T10:36:14.079Z,83.44
2023-05-19T10:38:40.509Z,83.39
2023-05-19T10:41:07.190Z,83.41
2023-05-19T10:43:33.725Z,83.50
2023-05-19T10:46:00.150Z,83.48
2023-05-19T10:48:26.593Z,83.44
2023-05-19T10:50:53.257Z,83.51
2023-05-19T10:53:19.671Z,83.50
2023-05-19T10:55:46.464Z,83.53
2023-05-19T10:58:12.876Z,83.63
2023-05-19T11:00:39.305Z,83.67
2023-05-19T11:03:05.805Z,83.64
2023-05-19T11:05:32.350Z,83.53
2023-05-19T11:07:58.965Z,83.52
2023-05-19T11:10:25.381Z,83.60
2023-05-19T11:15:18.362Z,83.74
2023-05-19T11:17:44.774Z,83.74
2023-05-19T11:20:11.203Z,83.76
2023-05-19T11:22:37.617Z,83.81
2023-05-19T11:25:04.053Z,83.82
2023-05-19T11:27:30.477Z,83.77
2023-05-19T11:29:56.882Z,83.79
2023-05-19T11:32:23.578Z,83.77
2023-05-19T11:34:50.010Z,83.75
2023-05-19T11:37:16.712Z,83.72
2023-05-19T11:39:43.141Z,83.76
2023-05-19T11:42:09.842Z,83.93
2023-05-19T11:44:36.251Z,83.95
2023-05-19T11:47:02.960Z,83.97
2023-05-19T11:49:29.390Z,84.01
2023-05-19T11:51:56.063Z,83.93
2023-05-19T11:54:22.489Z,83.95
2023-05-19T11:56:48.927Z,83.97
2023-05-19T11:59:15.418Z,83.97
2023-05-19T12:01:41.814Z,83.97
2023-05-19T12:04:08.285Z,83.99
2023-05-19T12:06:34.733Z,84.02
2023-05-19T12:09:01.186Z,84.03
2023-05-19T12:11:27.601Z,84.00
2023-05-19T12:13:54.058Z,84.06
2023-05-19T12:16:20.507Z,84.06
2023-05-19T12:18:46.994Z,84.03
2023-05-19T12:21:13.448Z,83.99
2023-05-19T12:23:39.876Z,83.99
2023-05-19T12:26:06.309Z,84.04
2023-05-19T12:28:32.760Z,83.96
2023-05-19T12:30:59.168Z,83.97
2023-05-19T12:33:25.616Z,83.97
2023-05-19T12:35:52.055Z,84.01
2023-05-19T12:38:18.470Z,84.07
2023-05-19T12:40:44.877Z,84.07
2023-05-19T12:43:11.293Z,84.12
2023-05-19T12:45:37.806Z,84.15
2023-05-19T12:48:04.371Z,84.15
2023-05-19T12:50:31.033Z,84.16
2023-05-19T12:52:57.750Z,84.15
2023-05-19T12:55:24.163Z,84.14
2023-05-19T12:57:50.717Z,84.12
2023-05-19T13:00:17.210Z,84.11
2023-05-19T13:02:43.707Z,84.16
2023-05-19T13:05:10.193Z,84.20
2023-05-19T13:07:36.621Z,84.16
2023-05-19T13:10:03.024Z,84.25
2023-05-19T13:12:29.714Z,84.20
2023-05-19T13:14:56.162Z,84.15
2023-05-19T13:17:22.852Z,84.17
2023-05-19T13:19:49.399Z,84.26
2023-05-19T13:22:16.149Z,84.23
2023-05-19T13:24:42.578Z,84.16
2023-05-19T13:27:09.284Z,84.16
2023-05-19T13:29:35.735Z,84.19
2023-05-19T13:32:02.432Z,84.28
2023-05-19T13:34:28.846Z,84.29
2023-05-19T13:36:55.584Z,84.28
2023-05-19T13:39:22.066Z,84.30
2023-05-19T13:41:48.780Z,84.34
2023-05-19T13:44:15.170Z,84.35
2023-05-19T13:46:45.423Z,84.32
2023-05-19T13:49:12.912Z,84.34
2023-05-19T13:51:39.593Z,84.37
2023-05-19T13:54:06.029Z,84.42
2023-05-19T13:56:32.752Z,84.44
2023-05-19T13:58:59.172Z,84.37
2023-05-19T14:01:25.913Z,84.39
2023-05-19T14:03:52.559Z,84.42
2023-05-19T14:06:19.496Z,84.34
2023-05-19T14:08:45.921Z,84.30
2023-05-19T14:11:12.603Z,84.24
2023-05-19T14:16:06.249Z,84.26
2023-05-19T14:18:32.752Z,84.28
2023-05-19T14:20:59.188Z,84.31
2023-05-19T14:23:25.596Z,84.30
2023-05-19T14:25:52.003Z,84.31
2023-05-19T14:28:18.423Z,84.24
2023-05-19T14:30:45.049Z,84.21
2023-05-19T14:33:11.542Z,84.22
2023-05-19T14:35:38.046Z,84.19
2023-05-19T14:38:04.437Z,84.25
2023-05-19T14:40:31.009Z,84.28
2023-05-19T14:42:57.655Z,84.33
2023-05-19T14:45:24.091Z,84.31
2023-05-19T14:47:50.542Z,84.20
2023-05-19T14:50:16.992Z,84.20
2023-05-19T14:52:43.430Z,84.23
2023-05-19T14:55:10.694Z,84.29
2023-05-19T14:57:37.115Z,84.30
2023-05-19T15:00:03.553Z,84.32
2023-05-19T15:02:30.159Z,84.33
2023-05-19T15:04:56.679Z,84.34
2023-05-19T15:07:23.374Z,84.32
2023-05-19T15:09:49.800Z,84.34
2023-05-19T15:12:16.444Z,84.37
2023-05-19T15:14:42.858Z,84.41
2023-05-19T15:17:09.611Z,84.42
2023-05-19T15:19:36.097Z,84.35
2023-05-19T15:22:02.728Z,84.34
2023-05-19T15:24:29.149Z,84.42
2023-05-19T15:26:55.584Z,84.45
2023-05-19T15:29:22.017Z,84.45
2023-05-19T15:31:48.488Z,84.44
2023-05-19T15:34:14.980Z,84.51
2023-05-19T15:36:41.413Z,84.51
2023-05-19T15:39:07.801Z,84.44
2023-05-19T15:41:34.209Z,84.48
2023-05-19T15:44:00.790Z,84.44
2023-05-19T15:46:27.363Z,84.31
2023-05-19T15:48:53.854Z,84.32
2023-05-19T15:51:20.267Z,84.31
2023-05-19T15:53:46.718Z,84.29
2023-05-19T15:56:13.193Z,84.42
2023-05-19T15:58:39.600Z,84.43
2023-05-19T16:01:06.006Z,84.48
2023-05-19T16:03:32.536Z,84.53
2023-05-19T16:05:59.021Z,84.53
2023-05-19T16:08:25.560Z,84.51
2023-05-19T16:10:51.990Z,84.50
2023-05-19T16:13:18.431Z,84.50
2023-05-19T16:15:44.862Z,84.41
2023-05-19T16:18:11.316Z,84.35
2023-05-19T16:20:37.834Z,84.41
2023-05-19T16:23:04.248Z,84.35
2023-05-19T16:25:30.677Z,84.28
2023-05-19T16:27:57.104Z,84.29
2023-05-19T16:30:23.530Z,84.36
2023-05-19T16:32:50.015Z,84.40
2023-05-19T16:35:16.473Z,84.44
2023-05-19T16:37:42.905Z,84.43
2023-05-19T16:40:09.340Z,84.40
2023-05-19T16:42:35.756Z,84.42
2023-05-19T16:45:02.179Z,84.41
2023-05-19T16:47:28.604Z,84.44
2023-05-19T16:49:55.054Z,84.45
2023-05-19T16:52:21.483Z,84.55
2023-05-19T16:54:47.868Z,84.51
2023-05-19T16:57:14.535Z,84.52
2023-05-19T16:59:40.971Z,84.58
2023-05-19T17:02:07.705Z,84.55
2023-05-19T17:04:34.162Z,84.57
2023-05-19T17:07:00.844Z,84.47
2023-05-19T17:09:27.250Z,84.42
2023-05-19T17:11:53.942Z,84.49
2023-05-19T17:14:20.367Z,84.55
2023-05-19T17:16:47.086Z,84.49
2023-05-19T17:19:13.594Z,84.49
2023-05-19T17:21:40.349Z,84.49
2023-05-19T17:24:06.773Z,84.37
2023-05-19T17:26:33.449Z,84.46
2023-05-19T17:28:59.859Z,84.51
2023-05-19T17:31:26.528Z,84.48
2023-05-19T17:33:52.929Z,84.43
2023-05-19T17:36:19.624Z,84.47
2023-05-19T17:38:46.047Z,84.52
2023-05-19T17:41:12.737Z,84.51
2023-05-19T17:43:39.139Z,84.59
2023-05-19T17:46:05.847Z,84.57
2023-05-19T17:48:32.284Z,84.54
2023-05-19T17:50:59.440Z,84.55
2023-05-19T17:53:25.860Z,84.51
2023-05-19T17:55:52.286Z,84.43
2023-05-19T17:58:18.931Z,84.48
2023-05-19T18:00:45.556Z,84.53
2023-05-19T18:03:12.089Z,84.50
2023-05-19T18:05:38.798Z,84.55
2023-05-19T18:08:05.203Z,84.62
2023-05-19T18:10:32.005Z,84.58
2023-05-19T18:12:58.706Z,84.54
2023-05-19T18:15:25.621Z,84.60
2023-05-19T18:17:52.056Z,84.66
2023-05-19T18:20:18.510Z,84.63
2023-05-19T18:22:44.938Z,84.62
2023-05-19T18:25:11.581Z,84.56
2023-05-19T18:27:37.981Z,84.72
2023-05-19T18:30:05.678Z,84.62
2023-05-19T18:32:32.640Z,84.60
2023-05-19T18:34:59.087Z,84.49
2023-05-19T18:37:25.722Z,84.57
2023-05-19T18:39:52.149Z,84.63
2023-05-19T18:42:18.562Z,84.64
2023-05-19T18:44:44.967Z,84.58
2023-05-19T18:47:11.376Z,84.56
2023-05-19T18:49:37.815Z,84.58
2023-05-19T18:52:04.250Z,84.48
2023-05-19T18:54:30.673Z,84.49
2023-05-19T18:56:57.087Z,84.68
2023-05-19T18:59:23.560Z,84.49
2023-05-19T19:01:50.000Z,84.55
2023-05-19T19:04:16.493Z,84.59
2023-05-19T19:06:43.891Z,84.58
2023-05-19T19:09:10.460Z,84.74
2023-05-19T19:11:36.939Z,84.63
2023-05-19T19:14:03.620Z,84.58
2023-05-19T19:16:30.305Z,84.60
2023-05-19T19:18:56.808Z,84.50
2023-05-19T19:21:23.295Z,84.58
2023-05-19T19:23:49.721Z,84.60
2023-05-19T19:26:16.358Z,84.76
2023-05-19T19:28:43.124Z,84.62
2023-05-19T19:31:09.592Z,84.64
2023-05-19T19:33:36.279Z,84.73
2023-05-19T19:36:02.954Z,84.71
2023-05-19T19:38:29.369Z,84.68
2023-05-19T19:40:56.010Z,84.65
2023-05-19T19:43:22.413Z,84.79
2023-05-19T19:45:49.014Z,84.73
2023-05-19T19:48:15.414Z,84.70
2023-05-19T19:50:42.062Z,84.71
2023-05-19T19:53:08.503Z,84.74
2023-05-19T19:55:35.164Z,84.67
2023-05-19T19:58:01.602Z,84.68
2023-05-19T20:00:28.220Z,84.64
2023-05-19T20:03:05.225Z,84.61
2023-05-19T20:05:32.454Z,84.65
2023-05-19T20:07:59.221Z,84.63
2023-05-19T20:10:25.898Z,84.72
2023-05-19T20:12:52.493Z,84.72
2023-05-19T20:15:19.111Z,84.63
2023-05-19T20:17:45.540Z,84.62
2023-05-19T20:20:12.306Z,84.59
2023-05-19T20:22:38.765Z,84.57
2023-05-19T20:25:05.191Z,84.65
2023-05-19T20:27:31.603Z,84.65
2023-05-19T20:29:58.034Z,84.61
2023-05-19T20:32:24.505Z,84.61
2023-05-19T20:34:50.938Z,84.68
2023-05-19T20:37:17.370Z,84.72
2023-05-19T20:39:43.807Z,84.68
2023-05-19T20:42:10.237Z,84.62
2023-05-19T20:44:36.666Z,84.71
2023-05-19T20:47:03.066Z,84.75
2023-05-19T20:49:29.483Z,84.64
2023-05-19T20:51:55.892Z,84.60
2023-05-19T20:54:22.539Z,84.68
2023-05-19T20:56:49.024Z,84.59
2023-05-19T20:59:15.454Z,84.63
2023-05-19T21:01:41.949Z,84.57
2023-05-19T21:04:08.753Z,84.57
2023-05-19T21:06:35.323Z,84.62
2023-05-19T21:09:01.841Z,84.63
2023-05-19T21:11:28.271Z,84.70
2023-05-19T21:13:54.700Z,84.66
2023-05-19T21:16:21.172Z,84.62
2023-05-19T21:18:47.809Z,84.67
2023-05-19T21:21:14.254Z,84.83
2023-05-19T21:23:40.693Z,84.63
2023-05-19T21:26:07.200Z,84.73
2023-05-19T21:28:33.793Z,84.64
2023-05-19T21:31:00.491Z,84.66
2023-05-19T21:33:27.014Z,84.66
2023-05-19T21:35:53.409Z,84.70
2023-05-19T21:38:23.781Z,84.64
2023-05-19T21:40:50.767Z,84.76
2023-05-19T21:43:17.409Z,84.73
2023-05-19T21:45:44.018Z,84.64
2023-05-19T21:48:10.683Z,84.76
2023-05-19T21:50:37.132Z,84.75
2023-05-19T21:53:03.563Z,84.73
2023-05-19T21:55:30.183Z,84.65
2023-05-19T21:57:56.601Z,84.79
2023-05-19T22:00:23.242Z,84.74
2023-05-19T22:02:49.944Z,84.68
2023-05-19T22:05:16.616Z,84.64
2023-05-19T22:07:43.026Z,84.66
2023-05-19T22:10:09.645Z,84.71
2023-05-19T22:12:36.069Z,84.77
2023-05-19T22:15:02.455Z,84.71
2023-05-19T22:17:29.142Z,84.68
2023-05-19T22:19:55.579Z,84.73
2023-05-19T22:22:22.014Z,84.75
2023-05-19T22:24:48.634Z,84.78
2023-05-19T22:27:15.284Z,84.65
2023-05-19T22:29:41.737Z,84.67
2023-05-19T22:32:08.147Z,84.69
2023-05-19T22:34:34.611Z,84.69
2023-05-19T22:37:01.093Z,84.70
2023-05-19T22:39:27.744Z,84.65
2023-05-19T22:41:54.151Z,84.72
2023-05-19T22:44:20.590Z,84.76
2023-05-19T22:46:47.008Z,84.76
2023-05-19T22:49:13.441Z,84.79
2023-05-19T22:51:39.860Z,84.70
2023-05-19T22:54:06.265Z,84.73
2023-05-19T22:56:32.664Z,84.71
2023-05-19T22:58:59.088Z,84.73
2023-05-19T23:01:25.520Z,84.72
2023-05-19T23:03:52.026Z,84.69
2023-05-19T23:06:18.447Z,84.71
2023-05-19T23:08:45.482Z,84.62
2023-05-19T23:11:13.048Z,84.68
2023-05-19T23:13:39.460Z,84.76
2023-05-19T23:16:05.858Z,84.75
2023-05-19T23:18:32.492Z,84.76
2023-05-19T23:20:58.904Z,84.74
2023-05-19T23:23:25.863Z,84.74
2023-05-19T23:25:53.074Z,84.79
2023-05-19T23:28:19.704Z,84.78
2023-05-19T23:30:46.091Z,84.75
2023-05-19T23:33:12.540Z,84.73
2023-05-19T23:35:39.053Z,84.72
2023-05-19T23:38:05.483Z,84.72
2023-05-19T23:40:31.920Z,84.77
2023-05-19T23:42:58.311Z,84.76
2023-05-19T23:45:24.776Z,84.77
2023-05-19T23:47:51.227Z,84.72
2023-05-19T23:50:17.670Z,84.79
2023-05-19T23:52:44.077Z,84.85
2023-05-19T23:55:10.483Z,84.78
2023-05-19T23:57:36.960Z,84.71
